KGVE/GVE METAR and TAF weather

Enter ICAO airport designator
Station Type Date Time Source
KGVE METAR 2020/01/27 10:55 UTC NOAA

KGVE 271055Z AUTO 00000KT 10SM CLR M02/M02 A2982 RMK AO1 T10251025


Station Type Date Time Source
KGVE Decoded METAR 2020/01/27 10:55 UTC NOAA

Station name not available
Jan 27, 2020 - 05:55 AM EST / 2020.01.27 1055 UTC
Wind: Calm:0
Visibility: 10 mile(s):0
Sky conditions: clear
Temperature: 27.5 F (-2.5 C)
Dew Point: 27.5 F (-2.5 C)
Relative Humidity: 100%
Pressure (altimeter): 29.82 in. Hg (1009 hPa)
ob: KGVE 271055Z AUTO 00000KT 10SM CLR M02/M02 A2982 RMK AO1 T10251025
cycle: 11

Station Type Date Time Source
KGVE TAF UTC NOAA

Error!

Example: see airport list